createdAt,value
2018-09-10T00:00:08.287Z,82.50
2018-09-10T00:02:36.540Z,82.50
2018-09-10T00:05:04.861Z,82.60
2018-09-10T00:07:33.116Z,82.50
2018-09-10T00:10:01.364Z,82.60
2018-09-10T00:12:29.595Z,82.80
2018-09-10T00:14:57.828Z,83.00
2018-09-10T00:17:26.075Z,82.90
2018-09-10T00:19:54.320Z,83.00
2018-09-10T00:22:22.566Z,82.90
2018-09-10T00:24:50.822Z,83.00
2018-09-10T00:27:19.071Z,82.90
2018-09-10T00:29:47.317Z,83.10
2018-09-10T00:32:15.556Z,83.80
2018-09-10T00:34:43.802Z,83.00
2018-09-10T00:37:12.029Z,83.00
2018-09-10T00:39:41.206Z,82.90
2018-09-10T00:42:09.436Z,82.80
2018-09-10T00:44:37.674Z,82.90
2018-09-10T00:47:06.063Z,82.90
2018-09-10T00:49:34.287Z,82.80
2018-09-10T00:52:02.523Z,82.00
2018-09-10T00:54:30.784Z,82.60
2018-09-10T00:56:59.023Z,82.90
2018-09-10T00:59:27.269Z,82.60
2018-09-10T01:01:55.808Z,82.70
2018-09-10T01:04:24.029Z,82.60
2018-09-10T01:06:52.682Z,82.50
2018-09-10T01:09:20.939Z,82.60
2018-09-10T01:11:49.171Z,82.50
2018-09-10T01:14:17.399Z,82.30
2018-09-10T01:16:45.676Z,82.40
2018-09-10T01:19:13.922Z,82.30
2018-09-10T01:21:42.164Z,82.30
2018-09-10T01:24:10.413Z,82.50
2018-09-10T01:26:38.751Z,82.50
2018-09-10T01:29:06.974Z,82.40
2018-09-10T01:31:35.191Z,82.50
2018-09-10T01:34:08.784Z,82.30
2018-09-10T01:36:37.094Z,82.30
2018-09-10T01:39:06.767Z,82.10
2018-09-10T01:41:35.056Z,81.90
2018-09-10T01:44:03.480Z,81.80
2018-09-10T01:46:31.705Z,81.60
2018-09-10T01:48:59.934Z,81.50
2018-09-10T01:51:28.204Z,81.20
2018-09-10T01:53:56.422Z,81.30
2018-09-10T01:56:24.682Z,81.00
2018-09-10T01:58:52.937Z,80.80
2018-09-10T02:01:21.221Z,80.80
2018-09-10T02:03:49.458Z,80.60
2018-09-10T02:06:17.751Z,80.30
2018-09-10T02:08:46.069Z,80.60
2018-09-10T02:11:14.334Z,80.40
2018-09-10T02:13:42.578Z,80.60
2018-09-10T02:16:15.186Z,80.70
2018-09-10T02:18:44.346Z,80.80
2018-09-10T02:21:12.647Z,80.60
2018-09-10T02:23:40.993Z,80.70
2018-09-10T02:26:09.169Z,80.90
2018-09-10T02:28:37.428Z,80.90
2018-09-10T02:31:06.175Z,80.60
2018-09-10T02:33:34.410Z,80.80
2018-09-10T02:36:02.855Z,80.80
2018-09-10T02:38:31.129Z,80.80
2018-09-10T02:40:59.355Z,80.90
2018-09-10T02:43:27.619Z,80.50
2018-09-10T02:45:55.878Z,80.60
2018-09-10T02:48:24.118Z,80.60
2018-09-10T02:50:52.359Z,80.80
2018-09-10T02:53:20.632Z,81.20
2018-09-10T02:55:48.867Z,81.10
2018-09-10T02:58:17.108Z,81.00
2018-09-10T03:00:45.383Z,81.70
2018-09-10T03:03:13.675Z,81.70
2018-09-10T03:05:41.900Z,81.70
2018-09-10T03:08:10.194Z,82.60
2018-09-10T03:10:38.456Z,81.60
2018-09-10T03:13:06.727Z,81.60
2018-09-10T03:15:34.970Z,81.40
2018-09-10T03:18:03.295Z,82.10
2018-09-10T03:20:31.466Z,81.50
2018-09-10T03:22:59.763Z,82.00
2018-09-10T03:25:27.986Z,81.90
2018-09-10T03:27:56.250Z,82.10
2018-09-10T03:30:24.497Z,81.90
2018-09-10T03:32:52.739Z,82.00
2018-09-10T03:35:20.999Z,82.00
2018-09-10T03:37:49.283Z,82.20
2018-09-10T03:40:17.522Z,82.10
2018-09-10T03:42:45.758Z,82.20
2018-09-10T03:45:14.040Z,82.20
2018-09-10T03:47:42.275Z,82.30
2018-09-10T03:50:10.514Z,82.30
2018-09-10T03:52:38.747Z,82.20
2018-09-10T03:55:06.972Z,82.40
2018-09-10T03:57:35.210Z,82.30
2018-09-10T04:00:03.457Z,83.20
2018-09-10T04:02:31.706Z,82.40
2018-09-10T04:04:59.941Z,82.40
2018-09-10T04:07:28.185Z,82.40
2018-09-10T04:09:56.416Z,82.50
2018-09-10T04:12:24.671Z,82.50
2018-09-10T04:14:52.920Z,82.50
2018-09-10T04:17:21.247Z,82.80
2018-09-10T04:19:49.460Z,82.90
2018-09-10T04:22:17.697Z,82.90
2018-09-10T04:24:45.955Z,82.90
2018-09-10T04:27:14.248Z,83.00
2018-09-10T04:29:42.491Z,83.30
2018-09-10T04:32:10.719Z,83.40
2018-09-10T04:34:38.954Z,83.40
2018-09-10T04:37:07.184Z,83.40
2018-09-10T04:39:35.412Z,83.70
2018-09-10T04:42:03.680Z,83.70
2018-09-10T04:44:31.969Z,83.80
2018-09-10T04:47:00.193Z,83.80
2018-09-10T04:49:28.437Z,83.70
2018-09-10T04:51:56.674Z,83.90
2018-09-10T04:54:24.909Z,84.20
2018-09-10T04:56:53.134Z,83.90
2018-09-10T04:59:21.408Z,84.20
2018-09-10T05:01:49.647Z,84.10
2018-09-10T05:04:17.884Z,83.90
2018-09-10T05:06:46.117Z,83.80
2018-09-10T05:09:14.372Z,83.80
2018-09-10T05:11:42.638Z,83.90
2018-09-10T05:14:10.923Z,84.10
2018-09-10T05:16:39.137Z,84.20
2018-09-10T05:19:07.362Z,84.30
2018-09-10T05:21:35.639Z,84.30
2018-09-10T05:24:03.907Z,84.70
2018-09-10T05:26:32.147Z,85.00
2018-09-10T05:29:00.402Z,84.60
2018-09-10T05:31:28.640Z,84.20
2018-09-10T05:33:56.916Z,84.90
2018-09-10T05:36:25.167Z,84.70
2018-09-10T05:38:53.402Z,84.80
2018-09-10T05:41:21.641Z,84.60
2018-09-10T05:43:49.972Z,85.00
2018-09-10T05:46:18.194Z,85.00
2018-09-10T05:48:46.494Z,84.90
2018-09-10T05:51:14.732Z,84.70
2018-09-10T05:53:42.960Z,84.70
2018-09-10T05:56:11.219Z,84.70
2018-09-10T05:58:39.475Z,84.90
2018-09-10T06:01:07.703Z,85.10
2018-09-10T06:03:35.955Z,85.00
2018-09-10T06:06:04.195Z,85.40
2018-09-10T06:08:32.443Z,85.10
2018-09-10T06:11:00.675Z,85.30
2018-09-10T06:13:28.927Z,85.50
2018-09-10T06:15:57.211Z,85.80
2018-09-10T06:18:25.407Z,86.10
2018-09-10T06:20:53.659Z,86.10
2018-09-10T06:23:21.885Z,86.20
2018-09-10T06:25:50.138Z,86.20
2018-09-10T06:28:18.436Z,86.50
2018-09-10T06:30:46.756Z,86.80
2018-09-10T06:33:14.983Z,86.70
2018-09-10T06:35:43.247Z,86.80
2018-09-10T06:38:11.483Z,87.00
2018-09-10T06:40:39.737Z,87.40
2018-09-10T06:43:07.987Z,87.20
2018-09-10T06:45:36.239Z,87.40
2018-09-10T06:48:04.475Z,87.40
2018-09-10T06:50:32.737Z,87.50
2018-09-10T06:53:00.978Z,88.10
2018-09-10T06:55:29.203Z,88.10
2018-09-10T06:57:57.451Z,88.00
2018-09-10T07:00:25.756Z,88.00
2018-09-10T07:02:53.985Z,88.30
2018-09-10T07:05:22.224Z,88.10
2018-09-10T07:07:50.473Z,88.20
2018-09-10T07:10:18.708Z,88.20
2018-09-10T07:12:47.041Z,88.40
2018-09-10T07:15:15.223Z,88.40
2018-09-10T07:17:43.483Z,88.50
2018-09-10T07:20:11.715Z,88.30
2018-09-10T07:22:39.940Z,88.50
2018-09-10T07:25:08.199Z,88.10
2018-09-10T07:27:36.480Z,87.50
2018-09-10T07:30:05.504Z,86.70
2018-09-10T07:32:33.727Z,85.90
2018-09-10T07:35:01.967Z,86.10
2018-09-10T07:37:30.211Z,85.70
2018-09-10T07:39:58.467Z,82.80
2018-09-10T07:42:26.736Z,81.40
2018-09-10T07:44:54.955Z,78.50
2018-09-10T07:47:23.221Z,76.30
2018-09-10T07:49:51.462Z,75.50
2018-09-10T07:52:19.723Z,75.00
2018-09-10T07:54:47.957Z,75.80
2018-09-10T07:57:16.207Z,76.20
2018-09-10T07:59:44.445Z,74.70
2018-09-10T08:02:12.658Z,72.30
2018-09-10T08:04:40.923Z,70.90
2018-09-10T08:07:09.171Z,68.70
2018-09-10T08:09:37.436Z,68.10
2018-09-10T08:12:05.919Z,67.60
2018-09-10T08:14:34.181Z,68.30
2018-09-10T08:17:02.432Z,68.40
2018-09-10T08:19:30.671Z,67.30
2018-09-10T08:21:58.912Z,67.20
2018-09-10T08:24:27.241Z,66.50
2018-09-10T08:26:55.415Z,67.20
2018-09-10T08:29:23.679Z,69.80
2018-09-10T08:31:51.938Z,71.50
2018-09-10T08:34:20.181Z,73.30
2018-09-10T08:36:48.419Z,75.80
2018-09-10T08:39:16.704Z,78.00
2018-09-10T08:41:44.937Z,79.40
2018-09-10T08:44:13.183Z,80.20
2018-09-10T08:46:41.431Z,80.80
2018-09-10T08:49:09.670Z,81.70
2018-09-10T08:51:37.904Z,82.30
2018-09-10T08:54:06.199Z,83.10
2018-09-10T08:56:34.463Z,83.50
2018-09-10T08:59:02.716Z,83.50
2018-09-10T09:01:30.947Z,83.70
2018-09-10T09:03:59.204Z,81.30
2018-09-10T09:06:27.488Z,80.60
2018-09-10T09:08:55.693Z,80.50
2018-09-10T09:11:23.928Z,80.50
2018-09-10T09:13:52.171Z,80.40
2018-09-10T09:16:20.394Z,78.40
2018-09-10T09:18:48.627Z,77.00
2018-09-10T09:21:16.983Z,76.20
2018-09-10T09:23:45.259Z,75.60
2018-09-10T09:26:13.507Z,74.00
2018-09-10T09:28:41.752Z,72.70
2018-09-10T09:31:09.999Z,72.00
2018-09-10T09:33:38.235Z,72.10
2018-09-10T09:36:12.001Z,70.10
2018-09-10T09:38:45.654Z,69.50
2018-09-10T09:41:19.307Z,70.30
2018-09-10T09:43:53.047Z,72.30
2018-09-10T09:46:21.620Z,74.10
2018-09-10T09:48:49.846Z,75.60
2018-09-10T09:51:18.145Z,76.90
2018-09-10T09:53:46.315Z,77.80
2018-09-10T09:56:14.555Z,79.30
2018-09-10T09:58:42.782Z,80.20
2018-09-10T10:01:16.558Z,80.50
2018-09-10T10:03:50.383Z,78.30
2018-09-10T10:06:18.637Z,74.70
2018-09-10T10:08:46.896Z,72.10
2018-09-10T10:11:15.156Z,71.10
2018-09-10T10:13:43.385Z,68.90
2018-09-10T10:16:11.639Z,68.90
2018-09-10T10:18:39.872Z,67.90
2018-09-10T10:21:08.175Z,67.80
2018-09-10T10:23:36.419Z,69.50
2018-09-10T10:29:26.909Z,71.80
2018-09-10T10:31:55.163Z,71.40
2018-09-10T10:34:23.520Z,71.20
2018-09-10T10:36:51.875Z,71.20
2018-09-10T10:39:20.217Z,70.60
2018-09-10T10:41:48.391Z,70.20
2018-09-10T10:44:16.629Z,68.70
2018-09-10T10:46:44.867Z,67.70
2018-09-10T10:49:13.124Z,66.20
2018-09-10T10:51:41.382Z,66.30
2018-09-10T10:54:09.635Z,65.20
2018-09-10T10:56:37.884Z,65.70
2018-09-10T10:59:06.143Z,66.40
2018-09-10T11:01:34.371Z,65.90
2018-09-10T11:04:02.702Z,65.90
2018-09-10T11:06:30.936Z,65.90
2018-09-10T11:08:59.172Z,67.10
2018-09-10T11:11:27.434Z,66.50
2018-09-10T11:13:55.684Z,66.20
2018-09-10T11:16:23.939Z,66.70
2018-09-10T11:18:52.202Z,65.10
2018-09-10T11:21:20.479Z,65.70
2018-09-10T11:23:48.723Z,66.00
2018-09-10T11:26:16.982Z,65.30
2018-09-10T11:28:45.219Z,65.70
2018-09-10T11:31:13.452Z,65.20
2018-09-10T11:33:41.733Z,64.90
2018-09-10T11:36:09.943Z,64.80
2018-09-10T11:38:38.235Z,63.90
2018-09-10T11:41:06.491Z,63.50
2018-09-10T11:43:34.771Z,64.00
2018-09-10T11:46:03.005Z,64.60
2018-09-10T11:48:31.264Z,64.40
2018-09-10T11:50:59.494Z,64.80
2018-09-10T11:53:27.738Z,65.30
2018-09-10T11:55:55.992Z,66.00
2018-09-10T11:58:24.240Z,67.20
2018-09-10T12:00:52.492Z,67.10
2018-09-10T12:03:20.724Z,67.60
2018-09-10T12:05:48.992Z,68.40
2018-09-10T12:08:17.231Z,69.00
2018-09-10T12:10:45.500Z,68.50
2018-09-10T12:13:13.939Z,69.90
2018-09-10T12:15:42.184Z,71.10
2018-09-10T12:18:10.439Z,70.80
2018-09-10T12:20:38.682Z,70.70
2018-09-10T12:23:06.944Z,71.80
2018-09-10T12:25:35.168Z,72.20
2018-09-10T12:28:03.410Z,72.00
2018-09-10T12:30:31.648Z,71.70
2018-09-10T12:32:59.924Z,72.10
2018-09-10T12:35:28.160Z,72.80
2018-09-10T12:37:56.383Z,71.70
2018-09-10T12:40:24.607Z,72.50
2018-09-10T12:42:52.859Z,72.70
2018-09-10T12:45:21.095Z,72.80
2018-09-10T12:47:49.338Z,73.10
2018-09-10T12:50:17.576Z,73.40
2018-09-10T12:52:45.822Z,73.30
2018-09-10T12:55:14.299Z,73.60
2018-09-10T12:57:42.532Z,73.30
2018-09-10T13:00:10.844Z,72.10
2018-09-10T13:02:39.079Z,72.10
2018-09-10T13:05:07.331Z,72.20
2018-09-10T13:07:35.571Z,71.90
2018-09-10T13:10:03.822Z,71.70
2018-09-10T13:12:32.079Z,71.90
2018-09-10T13:15:00.336Z,72.10
2018-09-10T13:17:28.575Z,70.40
2018-09-10T13:19:56.814Z,69.60
2018-09-10T13:22:25.066Z,69.70
2018-09-10T13:24:53.330Z,69.50
2018-09-10T13:27:21.571Z,69.30
2018-09-10T13:29:49.927Z,69.60
2018-09-10T13:32:18.076Z,69.70
2018-09-10T13:34:46.340Z,70.00
2018-09-10T13:37:14.600Z,69.80
2018-09-10T13:39:42.928Z,70.40
2018-09-10T13:42:12.187Z,69.30
2018-09-10T13:44:40.439Z,68.70
2018-09-10T13:47:08.681Z,69.30
2018-09-10T13:49:36.930Z,69.40
2018-09-10T13:52:05.217Z,69.00
2018-09-10T13:54:33.460Z,69.10
2018-09-10T13:57:01.715Z,69.80
2018-09-10T13:59:29.985Z,69.40
2018-09-10T14:01:58.238Z,70.10
2018-09-10T14:04:26.476Z,70.10
2018-09-10T14:06:54.715Z,70.10
2018-09-10T14:09:22.995Z,68.80
2018-09-10T14:11:51.263Z,69.40
2018-09-10T14:14:19.520Z,69.30
2018-09-10T14:16:47.778Z,70.20
2018-09-10T14:19:16.036Z,70.30
2018-09-10T14:21:44.294Z,69.30
2018-09-10T14:24:12.569Z,69.50
2018-09-10T14:26:40.824Z,70.90
2018-09-10T14:29:09.072Z,71.00
2018-09-10T14:31:37.321Z,70.60
2018-09-10T14:34:06.267Z,70.40
2018-09-10T14:36:34.512Z,70.10
2018-09-10T14:39:02.792Z,70.30
2018-09-10T14:41:31.059Z,70.90
2018-09-10T14:43:59.319Z,71.10
2018-09-10T14:46:27.546Z,70.90
2018-09-10T14:48:55.795Z,71.50
2018-09-10T14:51:24.056Z,70.40
2018-09-10T14:53:53.013Z,69.90
2018-09-10T14:56:21.379Z,68.90
2018-09-10T14:58:49.787Z,67.60
2018-09-10T15:01:18.027Z,67.60
2018-09-10T15:03:46.297Z,68.10
2018-09-10T15:06:14.556Z,66.90
2018-09-10T15:08:42.803Z,67.10
2018-09-10T15:11:11.388Z,66.70
2018-09-10T15:13:39.619Z,66.30
2018-09-10T15:16:07.869Z,65.90
2018-09-10T15:18:36.181Z,65.40
2018-09-10T15:21:04.380Z,64.70
2018-09-10T15:23:32.613Z,62.70
2018-09-10T15:26:00.943Z,62.80
2018-09-10T15:28:32.155Z,61.10
2018-09-10T15:31:00.463Z,60.70
2018-09-10T15:33:30.268Z,61.00
2018-09-10T15:35:58.532Z,60.50
2018-09-10T15:38:26.783Z,60.80
2018-09-10T15:40:55.035Z,62.00
2018-09-10T15:43:23.276Z,62.50
2018-09-10T15:45:51.526Z,62.90
2018-09-10T15:48:19.777Z,63.40
2018-09-10T15:50:48.111Z,63.00
2018-09-10T15:53:16.406Z,64.20
2018-09-10T15:55:44.614Z,63.00
2018-09-10T15:58:12.854Z,63.60
2018-09-10T16:00:41.099Z,64.30
2018-09-10T16:03:10.554Z,64.70
2018-09-10T16:05:39.181Z,65.30
2018-09-10T16:08:07.435Z,66.30
2018-09-10T16:10:35.748Z,66.80
2018-09-10T16:13:03.998Z,67.20
2018-09-10T16:15:32.518Z,67.30
2018-09-10T16:18:00.743Z,67.60
2018-09-10T16:20:29.005Z,67.90
2018-09-10T16:22:57.244Z,69.40
2018-09-10T16:25:25.620Z,68.90
2018-09-10T16:27:53.851Z,68.70
2018-09-10T16:30:22.130Z,68.20
2018-09-10T16:32:50.375Z,68.20
2018-09-10T16:35:18.614Z,68.50
2018-09-10T16:37:46.851Z,68.80
2018-09-10T16:40:15.108Z,68.70
2018-09-10T16:42:43.356Z,67.90
2018-09-10T16:45:11.614Z,67.60
2018-09-10T16:47:39.871Z,68.10
2018-09-10T16:50:08.336Z,67.80
2018-09-10T16:52:36.593Z,68.50
2018-09-10T16:55:04.917Z,68.70
2018-09-10T16:57:33.140Z,68.70
2018-09-10T17:00:01.532Z,69.00
2018-09-10T17:02:29.765Z,68.80
2018-09-10T17:04:58.026Z,69.20
2018-09-10T17:07:26.303Z,69.20
2018-09-10T17:09:54.544Z,69.60
2018-09-10T17:12:22.868Z,69.60
2018-09-10T17:14:51.155Z,69.30
2018-09-10T17:17:19.334Z,69.40
2018-09-10T17:19:47.561Z,69.80
2018-09-10T17:22:15.860Z,69.80
2018-09-10T17:24:44.161Z,70.20
2018-09-10T17:27:12.436Z,70.60
2018-09-10T17:29:40.679Z,71.10
2018-09-10T17:32:08.926Z,71.00
2018-09-10T17:34:37.164Z,71.50
2018-09-10T17:37:05.479Z,71.30
2018-09-10T17:39:33.708Z,71.70
2018-09-10T17:42:01.940Z,72.70
2018-09-10T17:44:30.196Z,72.20
2018-09-10T17:46:58.479Z,72.40
2018-09-10T17:49:26.695Z,72.40
2018-09-10T17:51:54.932Z,72.70
2018-09-10T17:54:23.323Z,72.50
2018-09-10T17:56:51.611Z,72.50
2018-09-10T17:59:19.847Z,72.50
2018-09-10T18:01:48.099Z,72.70
2018-09-10T18:04:16.369Z,72.20
2018-09-10T18:06:44.859Z,72.20
2018-09-10T18:09:13.423Z,71.50
2018-09-10T18:11:42.211Z,71.70
2018-09-10T18:14:10.475Z,71.70
2018-09-10T18:16:38.691Z,71.80
2018-09-10T18:19:06.916Z,71.60
2018-09-10T18:21:35.479Z,71.40
2018-09-10T18:24:04.368Z,71.80
2018-09-10T18:26:32.594Z,71.90
2018-09-10T18:29:01.066Z,72.10
2018-09-10T18:31:29.323Z,72.40
2018-09-10T18:33:57.597Z,72.80
2018-09-10T18:36:25.853Z,73.00
2018-09-10T18:38:54.104Z,72.90
2018-09-10T18:41:22.385Z,73.60
2018-09-10T18:43:50.726Z,73.70
2018-09-10T18:46:18.991Z,74.10
2018-09-10T18:48:47.272Z,74.50
2018-09-10T18:51:15.675Z,74.70
2018-09-10T18:53:43.979Z,74.80
2018-09-10T18:56:12.219Z,75.00
2018-09-10T18:58:40.467Z,75.50
2018-09-10T19:01:08.939Z,75.90
2018-09-10T19:03:37.011Z,76.30
2018-09-10T19:06:05.308Z,76.50
2018-09-10T19:08:33.619Z,76.60
2018-09-10T19:11:01.860Z,76.80
2018-09-10T19:13:30.123Z,76.80
2018-09-10T19:15:58.511Z,77.30
2018-09-10T19:18:31.964Z,77.80
2018-09-10T19:21:00.280Z,77.50
2018-09-10T19:23:28.680Z,78.20
2018-09-10T19:25:57.175Z,79.00
2018-09-10T19:28:25.584Z,78.50
2018-09-10T19:30:54.008Z,78.60
2018-09-10T19:33:22.257Z,78.80
2018-09-10T19:35:50.487Z,78.80
2018-09-10T19:38:18.847Z,78.90
2018-09-10T19:40:47.167Z,78.90
2018-09-10T19:43:15.402Z,79.30
2018-09-10T19:45:43.776Z,79.40
2018-09-10T19:48:12.108Z,79.60
2018-09-10T19:50:40.385Z,79.70
2018-09-10T19:53:08.944Z,80.30
2018-09-10T19:55:37.279Z,80.30
2018-09-10T19:58:05.523Z,80.30
2018-09-10T20:00:33.760Z,80.50
2018-09-10T20:03:02.324Z,80.70
2018-09-10T20:05:30.602Z,81.10
2018-09-10T20:07:58.871Z,81.20
2018-09-10T20:10:27.214Z,81.40
2018-09-10T20:12:55.525Z,81.40
2018-09-10T20:15:23.804Z,82.60
2018-09-10T20:17:52.127Z,81.70
2018-09-10T20:20:20.404Z,81.80
2018-09-10T20:22:48.659Z,81.90
2018-09-10T20:25:16.983Z,82.20
2018-09-10T20:27:45.263Z,82.40
2018-09-10T20:30:13.541Z,82.30
2018-09-10T20:32:41.799Z,82.30
2018-09-10T20:35:10.243Z,82.50
2018-09-10T20:37:38.669Z,82.40
2018-09-10T20:40:06.915Z,82.60
2018-09-10T20:42:35.231Z,83.00
2018-09-10T20:45:03.590Z,83.00
2018-09-10T20:47:31.813Z,83.10
2018-09-10T20:50:01.070Z,83.00
2018-09-10T20:52:29.328Z,83.10
2018-09-10T20:54:57.631Z,83.40
2018-09-10T20:57:25.852Z,83.80
2018-09-10T20:59:54.369Z,83.70
2018-09-10T21:02:22.864Z,83.70
2018-09-10T21:04:51.099Z,83.80
2018-09-10T21:07:19.620Z,84.10
2018-09-10T21:09:47.920Z,84.10
2018-09-10T21:12:16.184Z,84.40
2018-09-10T21:14:44.467Z,84.50
2018-09-10T21:17:12.797Z,85.10
2018-09-10T21:19:41.156Z,84.60
2018-09-10T21:22:09.447Z,84.70
2018-09-10T21:24:37.743Z,84.80
2018-09-10T21:27:06.099Z,84.70
2018-09-10T21:29:34.327Z,85.00
2018-09-10T21:32:02.640Z,84.80
2018-09-10T21:34:31.060Z,85.00
2018-09-10T21:36:59.300Z,85.10
2018-09-10T21:39:27.547Z,85.40
2018-09-10T21:41:55.843Z,85.60
2018-09-10T21:44:24.124Z,85.50
2018-09-10T21:46:53.183Z,85.50
2018-09-10T21:49:21.711Z,85.90
2018-09-10T21:51:50.219Z,85.70
2018-09-10T21:54:18.475Z,85.80
2018-09-10T21:56:46.732Z,86.20
2018-09-10T21:59:15.101Z,86.90
2018-09-10T22:01:43.353Z,86.20
2018-09-10T22:04:11.579Z,86.30
2018-09-10T22:06:39.989Z,86.30
2018-09-10T22:09:08.680Z,86.40
2018-09-10T22:11:41.161Z,87.50
2018-09-10T22:14:09.441Z,87.50
2018-09-10T22:16:37.686Z,86.80
2018-09-10T22:19:05.923Z,86.90
2018-09-10T22:21:34.468Z,87.00
2018-09-10T22:24:02.739Z,87.20
2018-09-10T22:26:30.976Z,87.40
2018-09-10T22:28:59.214Z,87.70
2018-09-10T22:31:27.454Z,87.70
2018-09-10T22:33:55.695Z,87.80
2018-09-10T22:36:24.008Z,88.10
2018-09-10T22:38:52.263Z,88.20
2018-09-10T22:41:20.498Z,88.50
2018-09-10T22:43:48.750Z,88.60
2018-09-10T22:46:16.998Z,88.50
2018-09-10T22:48:45.247Z,88.80
2018-09-10T22:51:13.516Z,88.90
2018-09-10T22:53:41.758Z,88.90
2018-09-10T22:56:09.995Z,89.10
2018-09-10T22:58:38.321Z,89.10
2018-09-10T23:01:06.551Z,89.30
2018-09-10T23:03:34.791Z,89.30
2018-09-10T23:06:03.047Z,89.50
2018-09-10T23:08:31.342Z,89.50
2018-09-10T23:10:59.546Z,89.30
2018-09-10T23:13:27.792Z,89.80
2018-09-10T23:15:56.056Z,89.90
2018-09-10T23:18:24.576Z,90.00
2018-09-10T23:20:52.815Z,90.10
2018-09-10T23:23:21.097Z,90.10
2018-09-10T23:25:49.347Z,90.10
2018-09-10T23:28:18.111Z,90.50
2018-09-10T23:30:46.495Z,90.20
2018-09-10T23:33:14.722Z,90.20
2018-09-10T23:35:42.972Z,90.20
2018-09-10T23:38:11.216Z,90.20
2018-09-10T23:40:39.459Z,90.30
2018-09-10T23:43:07.701Z,90.30
2018-09-10T23:45:35.919Z,90.30
2018-09-10T23:48:04.199Z,90.40
2018-09-10T23:50:32.447Z,90.30
2018-09-10T23:53:00.698Z,90.50
2018-09-10T23:55:29.191Z,90.60
2018-09-10T23:57:57.423Z,90.70
